createdAt,value
2022-11-23T00:01:53.316Z,2.27
2022-11-23T00:04:38.656Z,2.26
2022-11-23T00:07:24.245Z,2.23
2022-11-23T00:10:10.034Z,2.22
2022-11-23T00:12:55.675Z,2.23
2022-11-23T00:15:41.286Z,2.28
2022-11-23T00:18:26.665Z,2.31
2022-11-23T00:21:17.082Z,2.28
2022-11-23T00:24:02.776Z,2.30
2022-11-23T00:26:47.897Z,2.27
2022-11-23T00:29:33.670Z,2.28
2022-11-23T00:32:18.945Z,2.25
2022-11-23T00:35:04.635Z,2.15
2022-11-23T00:37:50.639Z,2.16
2022-11-23T00:40:35.556Z,2.19
2022-11-23T00:43:21.397Z,2.18
2022-11-23T00:46:10.180Z,2.14
2022-11-23T00:48:57.466Z,2.18
2022-11-23T00:51:43.904Z,2.24
2022-11-23T00:54:29.365Z,2.27
2022-11-23T00:57:14.522Z,2.30
2022-11-23T01:00:01.083Z,2.32
2022-11-23T01:02:46.290Z,2.29
2022-11-23T01:05:36.388Z,2.23
2022-11-23T01:08:21.497Z,2.22
2022-11-23T01:11:10.305Z,2.23
2022-11-23T01:13:55.800Z,2.24
2022-11-23T01:16:42.114Z,2.25
2022-11-23T01:19:28.568Z,2.23
2022-11-23T01:22:14.357Z,2.17
2022-11-23T01:25:00.986Z,2.18
2022-11-23T01:27:48.240Z,2.24
2022-11-23T01:30:34.492Z,2.27
2022-11-23T01:33:20.323Z,2.30
2022-11-23T01:36:18.750Z,2.36
2022-11-23T01:39:05.222Z,2.40
2022-11-23T01:41:50.318Z,2.43
2022-11-23T01:44:38.451Z,2.48
2022-11-23T01:47:23.709Z,2.52
2022-11-23T01:50:08.943Z,2.53
2022-11-23T01:52:54.702Z,2.56
2022-11-23T01:55:41.020Z,2.59
2022-11-23T01:58:29.332Z,2.64
2022-11-23T02:01:15.044Z,2.62
2022-11-23T02:04:01.667Z,2.64
2022-11-23T02:06:47.874Z,2.67
2022-11-23T02:09:35.293Z,2.66
2022-11-23T02:12:20.670Z,2.68
2022-11-23T02:15:06.290Z,2.70
2022-11-23T02:17:51.739Z,2.73
2022-11-23T02:20:37.293Z,2.74
2022-11-23T02:23:53.754Z,2.72
2022-11-23T02:26:39.168Z,2.73
2022-11-23T02:29:26.691Z,2.74
2022-11-23T02:32:11.906Z,2.73
2022-11-23T02:34:57.028Z,2.73
2022-11-23T02:37:43.164Z,2.71
2022-11-23T02:40:32.801Z,2.72
2022-11-23T02:43:18.234Z,2.67
2022-11-23T02:46:05.117Z,2.65
2022-11-23T02:48:50.378Z,2.65
2022-11-23T02:51:35.789Z,2.65
2022-11-23T02:54:21.371Z,2.63
2022-11-23T02:57:07.126Z,2.59
2022-11-23T02:59:52.593Z,2.60
2022-11-23T03:02:38.216Z,2.59
2022-11-23T03:05:23.317Z,2.55
2022-11-23T03:08:09.967Z,2.52
2022-11-23T03:10:56.372Z,2.51
2022-11-23T03:13:42.849Z,2.52
2022-11-23T03:16:27.982Z,2.52
2022-11-23T03:19:13.051Z,2.47
2022-11-23T03:21:58.422Z,2.38
2022-11-23T03:24:43.918Z,2.33
2022-11-23T03:27:34.868Z,2.36
2022-11-23T03:30:20.272Z,2.32
2022-11-23T03:33:06.849Z,2.34
2022-11-23T03:35:53.944Z,2.36
2022-11-23T03:38:43.254Z,2.36
2022-11-23T03:41:42.733Z,2.36
2022-11-23T03:44:28.135Z,2.33
2022-11-23T03:47:13.469Z,2.29
2022-11-23T03:49:58.674Z,2.25
2022-11-23T03:52:43.988Z,2.24
2022-11-23T03:55:33.915Z,2.29
2022-11-23T03:58:20.192Z,2.29
2022-11-23T04:01:05.749Z,2.32
2022-11-23T04:03:51.205Z,2.32
2022-11-23T04:06:41.554Z,2.36
2022-11-23T04:09:37.359Z,2.38
2022-11-23T04:12:22.634Z,2.34
2022-11-23T04:15:08.575Z,2.32
2022-11-23T04:17:55.262Z,2.33
2022-11-23T04:20:40.465Z,2.32
2022-11-23T04:23:25.918Z,2.33
2022-11-23T04:26:12.798Z,2.31
2022-11-23T04:29:01.014Z,2.27
2022-11-23T04:31:47.731Z,2.29
2022-11-23T04:34:35.939Z,2.25
2022-11-23T04:37:22.929Z,2.22
2022-11-23T04:40:09.159Z,2.19
2022-11-23T04:43:01.881Z,2.19
2022-11-23T04:45:50.203Z,2.23
2022-11-23T04:48:42.177Z,2.17
2022-11-23T04:51:27.634Z,2.13
2022-11-23T04:54:13.448Z,2.13
2022-11-23T04:57:06.322Z,2.16
2022-11-23T04:59:52.536Z,2.22
2022-11-23T05:02:38.093Z,2.25
2022-11-23T05:05:42.922Z,2.28
2022-11-23T05:08:29.120Z,2.30
2022-11-23T05:11:40.675Z,2.33
2022-11-23T05:14:27.876Z,2.36
2022-11-23T05:17:13.043Z,2.34
2022-11-23T05:20:00.026Z,2.35
2022-11-23T05:22:47.124Z,2.39
2022-11-23T05:25:35.605Z,2.42
2022-11-23T05:28:39.577Z,2.43
2022-11-23T05:31:26.400Z,2.45
2022-11-23T05:34:11.655Z,2.48
2022-11-23T05:37:03.929Z,2.50
2022-11-23T05:39:49.238Z,2.52
2022-11-23T05:42:34.680Z,2.55
2022-11-23T05:45:28.689Z,2.58
2022-11-23T05:48:16.221Z,2.63
2022-11-23T05:51:14.464Z,2.65
2022-11-23T05:54:04.077Z,2.65
2022-11-23T05:56:56.668Z,2.64
2022-11-23T05:59:49.894Z,2.65
2022-11-23T06:02:41.214Z,2.63
2022-11-23T06:05:28.033Z,2.51
2022-11-23T06:08:13.069Z,2.43
2022-11-23T06:11:01.365Z,2.38
2022-11-23T06:13:48.565Z,2.35
2022-11-23T06:16:35.262Z,2.32
2022-11-23T06:19:32.715Z,2.31
2022-11-23T06:22:19.704Z,2.28
2022-11-23T06:25:20.264Z,2.30
2022-11-23T06:28:28.992Z,2.29
2022-11-23T06:31:16.083Z,2.29
2022-11-23T06:34:01.461Z,2.30
2022-11-23T06:36:49.940Z,2.29
2022-11-23T06:39:35.784Z,2.25
2022-11-23T06:42:38.337Z,2.20
2022-11-23T06:45:28.378Z,2.13
2022-11-23T06:48:17.045Z,2.15
2022-11-23T06:51:05.474Z,2.16
2022-11-23T06:53:50.746Z,2.17
2022-11-23T06:56:37.458Z,2.18
2022-11-23T06:59:22.894Z,2.20
2022-11-23T07:02:09.475Z,2.18
2022-11-23T07:04:55.090Z,2.19
2022-11-23T07:07:40.728Z,2.23
2022-11-23T07:10:33.027Z,2.22
2022-11-23T07:13:19.754Z,2.24
2022-11-23T07:16:06.110Z,2.25
2022-11-23T07:18:51.430Z,2.29
2022-11-23T07:21:36.809Z,2.31
2022-11-23T07:24:22.265Z,2.33
2022-11-23T07:27:07.463Z,2.39
2022-11-23T07:29:53.528Z,2.47
2022-11-23T07:32:39.001Z,2.45
2022-11-23T07:35:24.317Z,2.43
2022-11-23T07:38:10.389Z,2.43
2022-11-23T07:40:55.939Z,2.50
2022-11-23T07:44:00.266Z,2.49
2022-11-23T07:46:45.690Z,2.54
2022-11-23T07:49:31.326Z,2.60
2022-11-23T07:52:16.316Z,2.64
2022-11-23T07:55:01.842Z,2.69
2022-11-23T07:57:46.979Z,2.68
2022-11-23T08:00:32.505Z,2.71
2022-11-23T08:03:33.297Z,2.72
2022-11-23T08:06:18.631Z,2.70
2022-11-23T08:09:03.959Z,2.72
2022-11-23T08:11:49.360Z,2.75
2022-11-23T08:14:35.473Z,2.71
2022-11-23T08:17:21.066Z,2.71
2022-11-23T08:20:06.721Z,2.78
2022-11-23T08:22:52.710Z,2.88
2022-11-23T08:25:37.900Z,2.95
2022-11-23T08:28:23.470Z,2.95
2022-11-23T08:31:11.331Z,2.95
2022-11-23T08:34:00.288Z,2.90
2022-11-23T08:36:48.478Z,2.92
2022-11-23T08:39:33.674Z,3.01
2022-11-23T08:42:19.084Z,3.01
2022-11-23T08:45:05.568Z,3.03
2022-11-23T08:47:51.086Z,3.00
2022-11-23T08:50:37.070Z,3.03
2022-11-23T08:53:22.871Z,3.01
2022-11-23T08:56:08.451Z,2.95
2022-11-23T08:58:53.945Z,2.92
2022-11-23T09:01:39.725Z,3.01
2022-11-23T09:04:27.564Z,3.17
2022-11-23T09:07:13.229Z,3.31
2022-11-23T09:09:58.322Z,3.37
2022-11-23T09:12:43.883Z,3.79
2022-11-23T09:15:29.241Z,4.63
2022-11-23T09:18:15.044Z,5.02
2022-11-23T09:21:03.966Z,5.25
2022-11-23T09:23:49.398Z,5.30
2022-11-23T09:26:34.891Z,5.26
2022-11-23T09:29:20.167Z,5.97
2022-11-23T09:32:05.598Z,6.15
2022-11-23T09:34:50.805Z,5.98
2022-11-23T09:37:36.422Z,5.86
2022-11-23T09:40:21.538Z,5.79
2022-11-23T09:43:40.523Z,5.70
2022-11-23T09:46:37.035Z,5.57
2022-11-23T09:49:31.306Z,5.46
2022-11-23T09:52:20.990Z,5.42
2022-11-23T09:55:16.797Z,5.37
2022-11-23T09:58:05.362Z,5.32
2022-11-23T10:00:59.259Z,5.24
2022-11-23T10:03:49.129Z,5.16
2022-11-23T10:06:40.141Z,5.29
2022-11-23T10:09:46.146Z,5.41
2022-11-23T10:12:38.583Z,5.54
2022-11-23T10:15:30.893Z,5.63
2022-11-23T10:18:36.157Z,5.73
2022-11-23T10:21:39.784Z,5.84
2022-11-23T10:24:32.767Z,5.95
2022-11-23T10:27:21.413Z,6.09
2022-11-23T10:30:12.550Z,6.23
2022-11-23T10:33:13.713Z,6.50
2022-11-23T10:35:58.915Z,6.77
2022-11-23T10:38:45.235Z,6.77
2022-11-23T10:41:30.885Z,6.72
2022-11-23T10:44:34.567Z,6.74
2022-11-23T10:47:51.489Z,6.78
2022-11-23T10:50:40.749Z,6.82
2022-11-23T10:53:28.386Z,6.92
2022-11-23T10:56:14.432Z,7.16
2022-11-23T10:58:59.804Z,7.12
2022-11-23T11:02:00.593Z,7.07
2022-11-23T11:04:47.159Z,7.01
2022-11-23T11:07:36.842Z,7.01
2022-11-23T11:10:43.931Z,7.00
2022-11-23T11:13:46.233Z,6.91
2022-11-23T11:16:36.948Z,6.92
2022-11-23T11:19:35.821Z,6.85
2022-11-23T11:22:37.773Z,6.83
2022-11-23T11:25:42.259Z,6.92
2022-11-23T11:28:36.333Z,6.96
2022-11-23T11:31:39.213Z,7.07
2022-11-23T11:34:34.321Z,7.14
2022-11-23T11:37:38.835Z,7.12
2022-11-23T11:40:31.914Z,7.05
2022-11-23T11:43:34.688Z,7.07
2022-11-23T11:46:30.328Z,7.09
2022-11-23T11:49:23.355Z,7.09
2022-11-23T11:52:21.899Z,7.09
2022-11-23T11:55:36.314Z,7.16
2022-11-23T11:58:25.316Z,7.20
2022-11-23T12:01:28.898Z,7.26
2022-11-23T12:04:25.994Z,7.36
2022-11-23T12:07:17.797Z,7.42
2022-11-23T12:10:18.823Z,7.45
2022-11-23T12:13:04.214Z,7.43
2022-11-23T12:16:02.740Z,7.37
2022-11-23T12:18:51.340Z,7.35
2022-11-23T12:21:54.353Z,7.38
2022-11-23T12:24:59.333Z,7.39
2022-11-23T12:28:10.513Z,7.39
2022-11-23T12:31:13.735Z,7.31
2022-11-23T12:34:02.007Z,7.23
2022-11-23T12:37:08.935Z,7.19
2022-11-23T12:40:12.221Z,7.19
2022-11-23T12:43:01.451Z,7.24
2022-11-23T12:46:11.282Z,7.26
2022-11-23T12:49:21.284Z,7.31
2022-11-23T12:52:15.698Z,7.34
2022-11-23T12:55:19.466Z,7.37
2022-11-23T12:58:28.623Z,7.37
2022-11-23T13:01:39.925Z,7.38
2022-11-23T13:04:44.354Z,7.46
2022-11-23T13:08:11.964Z,7.52
2022-11-23T13:11:37.581Z,7.57
2022-11-23T13:14:35.715Z,7.63
2022-11-23T13:17:47.811Z,7.71
2022-11-23T13:20:49.757Z,7.78
2022-11-23T13:23:39.354Z,7.72
2022-11-23T13:26:29.593Z,7.81
2022-11-23T13:29:54.119Z,7.78
2022-11-23T13:32:39.797Z,7.71
2022-11-23T13:35:27.839Z,7.61
2022-11-23T13:38:16.170Z,7.54
2022-11-23T13:41:01.498Z,7.46
2022-11-23T13:43:46.913Z,7.44
2022-11-23T13:46:33.347Z,7.43
2022-11-23T13:49:45.252Z,7.42
2022-11-23T13:52:31.617Z,7.39
2022-11-23T13:55:27.722Z,7.37
2022-11-23T13:58:24.874Z,7.36
2022-11-23T14:01:10.769Z,7.35
2022-11-23T14:03:56.109Z,7.39
2022-11-23T14:06:47.875Z,7.48
2022-11-23T14:09:44.144Z,7.59
2022-11-23T14:12:52.070Z,7.64
2022-11-23T14:15:40.860Z,7.68
2022-11-23T14:18:52.251Z,7.68
2022-11-23T14:21:50.995Z,7.66
2022-11-23T14:25:02.428Z,7.59
2022-11-23T14:27:58.920Z,7.47
2022-11-23T14:30:54.885Z,7.29
2022-11-23T14:34:01.548Z,7.19
2022-11-23T14:37:07.264Z,7.09
2022-11-23T14:39:58.689Z,6.97
2022-11-23T14:42:51.033Z,6.89
2022-11-23T14:45:36.909Z,6.78
2022-11-23T14:48:30.960Z,6.71
2022-11-23T14:51:22.942Z,6.65
2022-11-23T14:54:09.965Z,6.59
2022-11-23T14:56:59.476Z,6.49
2022-11-23T14:59:48.973Z,6.43
2022-11-23T15:02:37.643Z,6.37
2022-11-23T15:05:29.961Z,6.32
2022-11-23T15:08:30.136Z,6.28
2022-11-23T15:11:21.415Z,6.24
2022-11-23T15:14:25.177Z,6.17
2022-11-23T15:17:15.853Z,6.13
2022-11-23T15:20:02.123Z,6.11
2022-11-23T15:22:47.418Z,6.04
2022-11-23T15:25:33.186Z,5.99
2022-11-23T15:28:23.495Z,5.94
2022-11-23T15:31:35.518Z,5.93
2022-11-23T15:34:21.257Z,5.94
2022-11-23T15:37:10.105Z,5.96
2022-11-23T15:39:57.105Z,6.04
2022-11-23T15:42:45.062Z,6.07
2022-11-23T15:45:35.476Z,6.13
2022-11-23T15:48:29.273Z,6.16
2022-11-23T15:51:30.374Z,6.17
2022-11-23T15:54:21.082Z,6.15
2022-11-23T15:57:21.732Z,6.11
2022-11-23T16:00:09.451Z,6.09
2022-11-23T16:03:20.984Z,6.08
2022-11-23T16:06:12.524Z,6.07
2022-11-23T16:08:58.323Z,6.07
2022-11-23T16:11:51.937Z,6.01
2022-11-23T16:14:37.899Z,6.02
2022-11-23T16:17:26.222Z,6.01
2022-11-23T16:20:15.052Z,6.00
2022-11-23T16:23:00.946Z,5.96
2022-11-23T16:25:53.803Z,5.95
2022-11-23T16:28:48.260Z,5.92
2022-11-23T16:31:38.212Z,5.94
2022-11-23T16:34:24.315Z,5.96
2022-11-23T16:37:09.966Z,6.01
2022-11-23T16:39:55.081Z,6.02
2022-11-23T16:42:41.140Z,6.01
2022-11-23T16:45:27.341Z,5.96
2022-11-23T16:48:28.029Z,5.91
2022-11-23T16:51:14.620Z,5.93
2022-11-23T16:54:20.358Z,5.85
2022-11-23T16:57:05.794Z,5.77
2022-11-23T16:59:51.073Z,5.67
2022-11-23T17:02:36.615Z,5.64
2022-11-23T17:05:24.046Z,5.62
2022-11-23T17:08:09.862Z,5.54
2022-11-23T17:10:56.045Z,5.48
2022-11-23T17:13:42.345Z,5.35
2022-11-23T17:16:27.789Z,5.26
2022-11-23T17:19:17.826Z,5.16
2022-11-23T17:22:03.559Z,5.02
2022-11-23T17:24:50.038Z,4.94
2022-11-23T17:27:37.665Z,4.87
2022-11-23T17:30:22.872Z,4.82
2022-11-23T17:33:12.151Z,4.77
2022-11-23T17:35:59.831Z,4.72
2022-11-23T17:38:47.160Z,4.73
2022-11-23T17:41:32.588Z,4.68
2022-11-23T17:44:18.165Z,4.67
2022-11-23T17:47:03.845Z,4.67
2022-11-23T17:49:49.021Z,4.63
2022-11-23T17:52:34.452Z,4.65
2022-11-23T17:55:19.771Z,4.65
2022-11-23T17:58:05.758Z,4.62
2022-11-23T18:00:51.159Z,4.62
2022-11-23T18:03:36.701Z,4.64
2022-11-23T18:06:23.894Z,4.66
2022-11-23T18:09:11.659Z,4.65
2022-11-23T18:11:57.145Z,4.63
2022-11-23T18:14:42.287Z,4.61
2022-11-23T18:17:27.640Z,4.57
2022-11-23T18:20:13.292Z,4.56
2022-11-23T18:22:58.360Z,4.53
2022-11-23T18:25:45.580Z,4.49
2022-11-23T18:28:31.194Z,4.51
2022-11-23T18:31:16.751Z,4.53
2022-11-23T18:34:05.401Z,4.53
2022-11-23T18:36:50.788Z,4.55
2022-11-23T18:39:36.131Z,4.55
2022-11-23T18:42:21.520Z,4.57
2022-11-23T18:45:08.641Z,4.53
2022-11-23T18:47:54.285Z,4.44
2022-11-23T18:50:40.228Z,4.38
2022-11-23T18:53:25.435Z,4.32
2022-11-23T18:56:10.912Z,4.29
2022-11-23T18:58:56.278Z,4.28
2022-11-23T19:01:41.835Z,4.23
2022-11-23T19:04:27.017Z,4.25
2022-11-23T19:07:12.376Z,4.25
2022-11-23T19:09:57.697Z,4.22
2022-11-23T19:12:43.673Z,4.18
2022-11-23T19:15:29.361Z,4.15
2022-11-23T19:18:14.524Z,4.15
2022-11-23T19:20:59.844Z,4.14
2022-11-23T19:23:49.119Z,4.13
2022-11-23T19:26:34.718Z,4.12
2022-11-23T19:29:23.751Z,4.10
2022-11-23T19:32:10.092Z,4.09
2022-11-23T19:34:55.372Z,4.07
2022-11-23T19:37:40.804Z,4.04
2022-11-23T19:40:26.470Z,4.03
2022-11-23T19:43:11.784Z,4.02
2022-11-23T19:45:58.787Z,4.06
2022-11-23T19:48:44.105Z,4.07
2022-11-23T19:51:29.324Z,4.06
2022-11-23T19:54:14.537Z,4.06
2022-11-23T19:56:59.648Z,4.02
2022-11-23T19:59:45.929Z,3.96
2022-11-23T20:02:31.106Z,3.92
2022-11-23T20:05:16.600Z,3.83
2022-11-23T20:08:01.859Z,3.81
2022-11-23T20:10:47.108Z,3.82
2022-11-23T20:13:33.269Z,3.82
2022-11-23T20:16:19.964Z,3.83
2022-11-23T20:19:07.460Z,3.75
2022-11-23T20:21:53.295Z,3.68
2022-11-23T20:24:38.403Z,3.61
2022-11-23T20:27:23.440Z,3.63
2022-11-23T20:30:09.047Z,3.65
2022-11-23T20:32:54.366Z,3.66
2022-11-23T20:35:40.560Z,3.64
2022-11-23T20:38:25.595Z,3.64
2022-11-23T20:41:34.131Z,3.60
2022-11-23T20:44:20.820Z,3.57
2022-11-23T20:47:06.320Z,3.55
2022-11-23T20:49:51.534Z,3.48
2022-11-23T20:52:37.053Z,3.46
2022-11-23T20:55:25.377Z,3.44
2022-11-23T20:58:10.802Z,3.43
2022-11-23T21:00:56.586Z,3.45
2022-11-23T21:03:43.213Z,3.34
2022-11-23T21:06:28.692Z,3.32
2022-11-23T21:09:13.951Z,3.33
2022-11-23T21:12:17.483Z,3.36
2022-11-23T21:15:02.754Z,3.30
2022-11-23T21:17:47.774Z,3.22
2022-11-23T21:20:36.581Z,3.23
2022-11-23T21:23:22.103Z,3.25
2022-11-23T21:26:07.496Z,3.23
2022-11-23T21:28:53.341Z,3.20
2022-11-23T21:31:41.116Z,3.22
2022-11-23T21:34:28.176Z,3.24
2022-11-23T21:37:13.688Z,3.28
2022-11-23T21:39:59.004Z,3.32
2022-11-23T21:42:44.697Z,3.27
2022-11-23T21:45:30.886Z,3.20
2022-11-23T21:48:16.071Z,3.19
2022-11-23T21:51:07.738Z,3.26
2022-11-23T21:53:54.085Z,3.26
2022-11-23T21:56:39.364Z,3.24
2022-11-23T21:59:24.713Z,3.20
2022-11-23T22:02:12.126Z,3.19
2022-11-23T22:04:57.726Z,3.24
2022-11-23T22:07:55.140Z,3.30
2022-11-23T22:10:48.130Z,3.31
2022-11-23T22:13:36.889Z,3.31
2022-11-23T22:16:25.235Z,3.34
2022-11-23T22:19:12.081Z,3.28
2022-11-23T22:21:57.482Z,3.27
2022-11-23T22:24:42.611Z,3.26
2022-11-23T22:27:27.967Z,3.24
2022-11-23T22:30:13.541Z,3.16
2022-11-23T22:32:59.028Z,3.08
2022-11-23T22:35:44.292Z,3.04
2022-11-23T22:38:32.257Z,2.97
2022-11-23T22:41:17.729Z,2.92
2022-11-23T22:44:04.851Z,2.89
2022-11-23T22:46:50.294Z,2.86
2022-11-23T22:49:35.437Z,2.83
2022-11-23T22:52:24.913Z,2.74
2022-11-23T22:55:10.435Z,2.79
2022-11-23T22:57:55.804Z,2.78
2022-11-23T23:00:41.216Z,2.83
2022-11-23T23:03:26.532Z,2.92
2022-11-23T23:06:20.437Z,3.00
2022-11-23T23:09:07.874Z,3.01
2022-11-23T23:11:53.291Z,3.00
2022-11-23T23:14:38.426Z,2.90
2022-11-23T23:17:24.072Z,2.91
2022-11-23T23:20:09.772Z,2.94
2022-11-23T23:22:55.191Z,2.90
2022-11-23T23:25:40.432Z,2.89
2022-11-23T23:28:25.815Z,2.89
2022-11-23T23:31:14.200Z,2.91
2022-11-23T23:33:59.918Z,2.95
2022-11-23T23:36:45.171Z,3.00
2022-11-23T23:39:30.720Z,3.03
2022-11-23T23:42:15.982Z,3.11
2022-11-23T23:45:02.830Z,3.15
2022-11-23T23:47:48.230Z,3.13
2022-11-23T23:50:33.438Z,3.08
2022-11-23T23:53:18.893Z,3.10
2022-11-23T23:56:07.495Z,3.07
2022-11-23T23:58:56.568Z,3.08
